sensor_id;sensor_type;location;lat;lon;timestamp;P1;durP1;ratioP1;P2;durP2;ratioP2
37051;SDS011;22964;52.272;13.356;2022-08-21T00:02:16;4.80;;;4.05;;
37051;SDS011;22964;52.272;13.356;2022-08-21T00:04:43;5.07;;;4.18;;
37051;SDS011;22964;52.272;13.356;2022-08-21T00:07:09;4.40;;;3.80;;
37051;SDS011;22964;52.272;13.356;2022-08-21T00:09:35;4.65;;;3.88;;
37051;SDS011;22964;52.272;13.356;2022-08-21T00:12:01;4.32;;;3.50;;
37051;SDS011;22964;52.272;13.356;2022-08-21T00:14:27;5.78;;;3.85;;
37051;SDS011;22964;52.272;13.356;2022-08-21T00:16:53;4.45;;;3.85;;
37051;SDS011;22964;52.272;13.356;2022-08-21T00:19:18;5.78;;;4.00;;
37051;SDS011;22964;52.272;13.356;2022-08-21T00:21:44;4.95;;;3.88;;
37051;SDS011;22964;52.272;13.356;2022-08-21T00:24:10;4.95;;;3.80;;
37051;SDS011;22964;52.272;13.356;2022-08-21T00:26:36;7.80;;;4.03;;
37051;SDS011;22964;52.272;13.356;2022-08-21T00:29:02;5.95;;;3.92;;
37051;SDS011;22964;52.272;13.356;2022-08-21T00:31:28;4.40;;;3.60;;
37051;SDS011;22964;52.272;13.356;2022-08-21T00:33:54;4.20;;;3.80;;
37051;SDS011;22964;52.272;13.356;2022-08-21T00:36:20;5.45;;;4.00;;
37051;SDS011;22964;52.272;13.356;2022-08-21T00:38:45;4.30;;;3.78;;
37051;SDS011;22964;52.272;13.356;2022-08-21T00:41:11;4.50;;;3.63;;
37051;SDS011;22964;52.272;13.356;2022-08-21T00:43:37;3.83;;;3.42;;
37051;SDS011;22964;52.272;13.356;2022-08-21T00:46:05;4.05;;;3.28;;
37051;SDS011;22964;52.272;13.356;2022-08-21T00:48:31;4.22;;;3.17;;
37051;SDS011;22964;52.272;13.356;2022-08-21T00:51:00;5.32;;;3.63;;
37051;SDS011;22964;52.272;13.356;2022-08-21T00:53:30;4.68;;;3.88;;
37051;SDS011;22964;52.272;13.356;2022-08-21T00:55:57;4.13;;;3.40;;
37051;SDS011;22964;52.272;13.356;2022-08-21T00:58:25;4.70;;;3.63;;
37051;SDS011;22964;52.272;13.356;2022-08-21T01:00:52;5.63;;;3.78;;
37051;SDS011;22964;52.272;13.356;2022-08-21T01:03:19;4.95;;;3.58;;
37051;SDS011;22964;52.272;13.356;2022-08-21T01:05:47;4.07;;;3.10;;
37051;SDS011;22964;52.272;13.356;2022-08-21T01:08:13;5.63;;;3.33;;
37051;SDS011;22964;52.272;13.356;2022-08-21T01:10:42;5.93;;;3.35;;
37051;SDS011;22964;52.272;13.356;2022-08-21T01:13:09;5.13;;;3.22;;
37051;SDS011;22964;52.272;13.356;2022-08-21T01:15:37;4.28;;;3.30;;
37051;SDS011;22964;52.272;13.356;2022-08-21T01:18:07;3.70;;;3.15;;
37051;SDS011;22964;52.272;13.356;2022-08-21T01:20:36;3.90;;;3.25;;
37051;SDS011;22964;52.272;13.356;2022-08-21T01:23:04;3.55;;;2.83;;
37051;SDS011;22964;52.272;13.356;2022-08-21T01:25:31;4.25;;;3.22;;
37051;SDS011;22964;52.272;13.356;2022-08-21T01:27:59;4.25;;;3.10;;
37051;SDS011;22964;52.272;13.356;2022-08-21T01:32:58;4.85;;;3.08;;
37051;SDS011;22964;52.272;13.356;2022-08-21T01:35:24;5.85;;;3.22;;
37051;SDS011;22964;52.272;13.356;2022-08-21T01:37:50;3.90;;;2.95;;
37051;SDS011;22964;52.272;13.356;2022-08-21T01:40:16;4.75;;;3.17;;
37051;SDS011;22964;52.272;13.356;2022-08-21T01:42:43;3.75;;;3.20;;
37051;SDS011;22964;52.272;13.356;2022-08-21T01:45:11;4.35;;;3.10;;
37051;SDS011;22964;52.272;13.356;2022-08-21T01:47:37;3.28;;;2.80;;
37051;SDS011;22964;52.272;13.356;2022-08-21T01:50:04;3.50;;;2.70;;
37051;SDS011;22964;52.272;13.356;2022-08-21T01:52:33;4.40;;;2.78;;
37051;SDS011;22964;52.272;13.356;2022-08-21T01:54:58;4.00;;;2.90;;
37051;SDS011;22964;52.272;13.356;2022-08-21T01:57:24;3.22;;;2.80;;
37051;SDS011;22964;52.272;13.356;2022-08-21T01:59:50;3.65;;;2.67;;
37051;SDS011;22964;52.272;13.356;2022-08-21T02:02:16;3.17;;;2.80;;
37051;SDS011;22964;52.272;13.356;2022-08-21T02:04:41;4.30;;;2.90;;
37051;SDS011;22964;52.272;13.356;2022-08-21T02:07:07;3.80;;;2.63;;
37051;SDS011;22964;52.272;13.356;2022-08-21T02:09:33;4.82;;;2.78;;
37051;SDS011;22964;52.272;13.356;2022-08-21T02:11:59;3.70;;;2.60;;
37051;SDS011;22964;52.272;13.356;2022-08-21T02:14:24;4.65;;;2.97;;
37051;SDS011;22964;52.272;13.356;2022-08-21T02:16:50;3.80;;;2.83;;
37051;SDS011;22964;52.272;13.356;2022-08-21T02:19:16;3.45;;;2.70;;
37051;SDS011;22964;52.272;13.356;2022-08-21T02:21:42;3.85;;;2.67;;
37051;SDS011;22964;52.272;13.356;2022-08-21T02:24:08;3.88;;;2.75;;
37051;SDS011;22964;52.272;13.356;2022-08-21T02:26:35;3.45;;;2.97;;
37051;SDS011;22964;52.272;13.356;2022-08-21T02:29:01;5.93;;;3.20;;
37051;SDS011;22964;52.272;13.356;2022-08-21T02:31:28;3.72;;;2.80;;
37051;SDS011;22964;52.272;13.356;2022-08-21T02:33:54;3.38;;;2.83;;
37051;SDS011;22964;52.272;13.356;2022-08-21T02:36:20;3.60;;;2.80;;
37051;SDS011;22964;52.272;13.356;2022-08-21T02:38:46;4.15;;;2.97;;
37051;SDS011;22964;52.272;13.356;2022-08-21T02:41:13;7.90;;;3.08;;
37051;SDS011;22964;52.272;13.356;2022-08-21T02:43:41;4.20;;;2.65;;
37051;SDS011;22964;52.272;13.356;2022-08-21T02:46:07;5.13;;;2.58;;
37051;SDS011;22964;52.272;13.356;2022-08-21T02:48:34;4.47;;;2.58;;
37051;SDS011;22964;52.272;13.356;2022-08-21T02:51:02;4.35;;;3.10;;
37051;SDS011;22964;52.272;13.356;2022-08-21T02:53:33;4.35;;;2.80;;
37051;SDS011;22964;52.272;13.356;2022-08-21T02:56:01;4.85;;;3.00;;
37051;SDS011;22964;52.272;13.356;2022-08-21T02:58:34;4.53;;;2.70;;
37051;SDS011;22964;52.272;13.356;2022-08-21T03:01:03;3.42;;;2.88;;
37051;SDS011;22964;52.272;13.356;2022-08-21T03:03:30;4.00;;;2.58;;
37051;SDS011;22964;52.272;13.356;2022-08-21T03:05:56;4.20;;;2.75;;
37051;SDS011;22964;52.272;13.356;2022-08-21T03:08:22;3.88;;;2.60;;
37051;SDS011;22964;52.272;13.356;2022-08-21T03:10:49;4.00;;;2.80;;
37051;SDS011;22964;52.272;13.356;2022-08-21T03:13:16;3.88;;;2.58;;
37051;SDS011;22964;52.272;13.356;2022-08-21T03:15:43;4.05;;;2.67;;
37051;SDS011;22964;52.272;13.356;2022-08-21T03:18:09;4.38;;;2.50;;
37051;SDS011;22964;52.272;13.356;2022-08-21T03:20:36;4.30;;;2.63;;
37051;SDS011;22964;52.272;13.356;2022-08-21T03:23:03;3.00;;;2.50;;
37051;SDS011;22964;52.272;13.356;2022-08-21T03:25:30;3.63;;;2.38;;
37051;SDS011;22964;52.272;13.356;2022-08-21T03:27:57;3.63;;;2.33;;
37051;SDS011;22964;52.272;13.356;2022-08-21T03:30:28;6.37;;;2.67;;
37051;SDS011;22964;52.272;13.356;2022-08-21T03:32:56;3.80;;;2.40;;
37051;SDS011;22964;52.272;13.356;2022-08-21T03:35:23;5.18;;;2.15;;
37051;SDS011;22964;52.272;13.356;2022-08-21T03:37:49;3.50;;;2.20;;
37051;SDS011;22964;52.272;13.356;2022-08-21T03:40:16;3.53;;;2.20;;
37051;SDS011;22964;52.272;13.356;2022-08-21T03:42:42;5.18;;;2.20;;
37051;SDS011;22964;52.272;13.356;2022-08-21T03:45:10;4.03;;;2.30;;
37051;SDS011;22964;52.272;13.356;2022-08-21T03:47:36;3.47;;;2.08;;
37051;SDS011;22964;52.272;13.356;2022-08-21T03:50:04;4.40;;;2.30;;
37051;SDS011;22964;52.272;13.356;2022-08-21T03:52:31;4.32;;;2.10;;
37051;SDS011;22964;52.272;13.356;2022-08-21T03:54:56;3.22;;;2.03;;
37051;SDS011;22964;52.272;13.356;2022-08-21T03:57:22;3.47;;;2.20;;
37051;SDS011;22964;52.272;13.356;2022-08-21T03:59:48;6.53;;;2.40;;
37051;SDS011;22964;52.272;13.356;2022-08-21T04:02:15;4.85;;;2.20;;
37051;SDS011;22964;52.272;13.356;2022-08-21T04:04:43;4.57;;;2.08;;
37051;SDS011;22964;52.272;13.356;2022-08-21T04:07:09;3.78;;;2.25;;
37051;SDS011;22964;52.272;13.356;2022-08-21T04:09:35;3.83;;;2.08;;
37051;SDS011;22964;52.272;13.356;2022-08-21T04:12:00;3.92;;;2.00;;
37051;SDS011;22964;52.272;13.356;2022-08-21T04:14:28;6.45;;;2.35;;
37051;SDS011;22964;52.272;13.356;2022-08-21T04:16:53;4.45;;;2.10;;
37051;SDS011;22964;52.272;13.356;2022-08-21T04:19:19;3.92;;;1.88;;
37051;SDS011;22964;52.272;13.356;2022-08-21T04:21:45;5.07;;;2.10;;
37051;SDS011;22964;52.272;13.356;2022-08-21T04:24:10;3.97;;;2.08;;
37051;SDS011;22964;52.272;13.356;2022-08-21T04:26:37;5.57;;;2.05;;
37051;SDS011;22964;52.272;13.356;2022-08-21T04:29:03;4.07;;;2.15;;
37051;SDS011;22964;52.272;13.356;2022-08-21T04:31:31;3.50;;;2.00;;
37051;SDS011;22964;52.272;13.356;2022-08-21T04:33:58;4.22;;;2.42;;
37051;SDS011;22964;52.272;13.356;2022-08-21T04:36:24;3.85;;;2.00;;
37051;SDS011;22964;52.272;13.356;2022-08-21T04:38:50;4.75;;;2.08;;
37051;SDS011;22964;52.272;13.356;2022-08-21T04:41:15;4.47;;;2.20;;
37051;SDS011;22964;52.272;13.356;2022-08-21T04:43:41;4.88;;;2.00;;
37051;SDS011;22964;52.272;13.356;2022-08-21T04:46:07;4.80;;;2.38;;
37051;SDS011;22964;52.272;13.356;2022-08-21T04:48:33;4.28;;;2.40;;
37051;SDS011;22964;52.272;13.356;2022-08-21T04:53:37;3.95;;;2.20;;
37051;SDS011;22964;52.272;13.356;2022-08-21T04:56:17;3.08;;;2.22;;
37051;SDS011;22964;52.272;13.356;2022-08-21T04:58:46;4.20;;;2.10;;
37051;SDS011;22964;52.272;13.356;2022-08-21T05:01:15;7.20;;;2.45;;
37051;SDS011;22964;52.272;13.356;2022-08-21T05:03:45;5.15;;;2.30;;
37051;SDS011;22964;52.272;13.356;2022-08-21T05:06:13;5.40;;;2.33;;
37051;SDS011;22964;52.272;13.356;2022-08-21T05:08:42;6.05;;;2.30;;
37051;SDS011;22964;52.272;13.356;2022-08-21T05:11:10;4.00;;;2.17;;
37051;SDS011;22964;52.272;13.356;2022-08-21T05:13:36;3.28;;;2.05;;
37051;SDS011;22964;52.272;13.356;2022-08-21T05:16:01;3.88;;;2.15;;
37051;SDS011;22964;52.272;13.356;2022-08-21T05:18:28;3.55;;;2.22;;
37051;SDS011;22964;52.272;13.356;2022-08-21T05:20:53;3.95;;;2.22;;
37051;SDS011;22964;52.272;13.356;2022-08-21T05:23:19;3.33;;;1.90;;
37051;SDS011;22964;52.272;13.356;2022-08-21T05:25:45;5.35;;;2.22;;
37051;SDS011;22964;52.272;13.356;2022-08-21T05:28:11;8.73;;;2.00;;
37051;SDS011;22964;52.272;13.356;2022-08-21T05:30:37;3.35;;;1.92;;
37051;SDS011;22964;52.272;13.356;2022-08-21T05:33:04;4.45;;;2.17;;
37051;SDS011;22964;52.272;13.356;2022-08-21T05:35:31;3.58;;;1.83;;
37051;SDS011;22964;52.272;13.356;2022-08-21T05:37:57;4.30;;;2.00;;
37051;SDS011;22964;52.272;13.356;2022-08-21T05:40:24;3.90;;;1.92;;
37051;SDS011;22964;52.272;13.356;2022-08-21T05:42:51;4.18;;;2.20;;
37051;SDS011;22964;52.272;13.356;2022-08-21T05:45:18;5.20;;;1.80;;
37051;SDS011;22964;52.272;13.356;2022-08-21T05:47:44;4.45;;;1.98;;
37051;SDS011;22964;52.272;13.356;2022-08-21T05:50:10;6.95;;;2.00;;
37051;SDS011;22964;52.272;13.356;2022-08-21T05:52:35;6.93;;;1.88;;
37051;SDS011;22964;52.272;13.356;2022-08-21T05:55:01;4.07;;;1.73;;
37051;SDS011;22964;52.272;13.356;2022-08-21T05:57:27;3.13;;;1.83;;
37051;SDS011;22964;52.272;13.356;2022-08-21T05:59:53;3.90;;;1.98;;
37051;SDS011;22964;52.272;13.356;2022-08-21T06:02:20;4.57;;;1.83;;
37051;SDS011;22964;52.272;13.356;2022-08-21T06:04:46;4.43;;;1.98;;
37051;SDS011;22964;52.272;13.356;2022-08-21T06:07:12;5.60;;;1.83;;
37051;SDS011;22964;52.272;13.356;2022-08-21T06:09:38;5.15;;;1.90;;
37051;SDS011;22964;52.272;13.356;2022-08-21T06:12:04;5.43;;;2.13;;
37051;SDS011;22964;52.272;13.356;2022-08-21T06:14:31;3.20;;;1.80;;
37051;SDS011;22964;52.272;13.356;2022-08-21T06:17:04;4.95;;;1.70;;
37051;SDS011;22964;52.272;13.356;2022-08-21T06:19:31;3.75;;;1.60;;
37051;SDS011;22964;52.272;13.356;2022-08-21T06:21:57;4.28;;;1.55;;
37051;SDS011;22964;52.272;13.356;2022-08-21T06:24:24;5.00;;;1.70;;
37051;SDS011;22964;52.272;13.356;2022-08-21T06:26:49;4.18;;;1.60;;
37051;SDS011;22964;52.272;13.356;2022-08-21T06:29:15;4.28;;;1.80;;
37051;SDS011;22964;52.272;13.356;2022-08-21T06:31:43;3.95;;;1.52;;
37051;SDS011;22964;52.272;13.356;2022-08-21T06:34:09;2.90;;;1.40;;
37051;SDS011;22964;52.272;13.356;2022-08-21T06:36:36;3.80;;;1.48;;
37051;SDS011;22964;52.272;13.356;2022-08-21T06:39:02;3.63;;;1.65;;
37051;SDS011;22964;52.272;13.356;2022-08-21T06:41:28;4.40;;;1.70;;
37051;SDS011;22964;52.272;13.356;2022-08-21T06:43:54;4.07;;;1.80;;
37051;SDS011;22964;52.272;13.356;2022-08-21T06:46:21;5.45;;;1.70;;
37051;SDS011;22964;52.272;13.356;2022-08-21T06:48:51;3.88;;;1.58;;
37051;SDS011;22964;52.272;13.356;2022-08-21T06:51:17;4.22;;;1.90;;
37051;SDS011;22964;52.272;13.356;2022-08-21T06:53:44;4.65;;;1.60;;
37051;SDS011;22964;52.272;13.356;2022-08-21T06:56:10;3.63;;;1.48;;
37051;SDS011;22964;52.272;13.356;2022-08-21T06:58:36;6.78;;;2.78;;
37051;SDS011;22964;52.272;13.356;2022-08-21T07:01:01;3.88;;;1.40;;
37051;SDS011;22964;52.272;13.356;2022-08-21T07:03:32;3.75;;;1.48;;
37051;SDS011;22964;52.272;13.356;2022-08-21T07:06:07;2.97;;;1.30;;
37051;SDS011;22964;52.272;13.356;2022-08-21T07:08:34;5.55;;;1.67;;
37051;SDS011;22964;52.272;13.356;2022-08-21T07:11:01;4.65;;;1.70;;
37051;SDS011;22964;52.272;13.356;2022-08-21T07:13:29;5.13;;;1.50;;
37051;SDS011;22964;52.272;13.356;2022-08-21T07:15:55;3.88;;;1.50;;
37051;SDS011;22964;52.272;13.356;2022-08-21T07:18:21;4.22;;;1.42;;
37051;SDS011;22964;52.272;13.356;2022-08-21T07:20:46;5.82;;;1.60;;
37051;SDS011;22964;52.272;13.356;2022-08-21T07:23:17;3.35;;;1.40;;
37051;SDS011;22964;52.272;13.356;2022-08-21T07:25:49;4.63;;;1.42;;
37051;SDS011;22964;52.272;13.356;2022-08-21T07:28:15;5.43;;;1.52;;
37051;SDS011;22964;52.272;13.356;2022-08-21T07:30:41;3.72;;;1.65;;
37051;SDS011;22964;52.272;13.356;2022-08-21T07:33:06;3.55;;;1.27;;
37051;SDS011;22964;52.272;13.356;2022-08-21T07:35:32;3.38;;;1.20;;
37051;SDS011;22964;52.272;13.356;2022-08-21T07:37:58;2.97;;;1.30;;
37051;SDS011;22964;52.272;13.356;2022-08-21T07:40:24;3.72;;;1.48;;
37051;SDS011;22964;52.272;13.356;2022-08-21T07:42:50;2.90;;;1.20;;
37051;SDS011;22964;52.272;13.356;2022-08-21T07:45:17;3.85;;;1.40;;
37051;SDS011;22964;52.272;13.356;2022-08-21T07:47:45;4.60;;;1.10;;
37051;SDS011;22964;52.272;13.356;2022-08-21T07:50:11;4.03;;;1.30;;
37051;SDS011;22964;52.272;13.356;2022-08-21T07:52:38;3.03;;;1.20;;
37051;SDS011;22964;52.272;13.356;2022-08-21T07:55:04;4.63;;;1.30;;
37051;SDS011;22964;52.272;13.356;2022-08-21T07:57:31;4.35;;;1.30;;
37051;SDS011;22964;52.272;13.356;2022-08-21T07:59:57;3.88;;;1.20;;
37051;SDS011;22964;52.272;13.356;2022-08-21T08:02:26;3.25;;;1.45;;
37051;SDS011;22964;52.272;13.356;2022-08-21T08:04:53;3.17;;;1.10;;
37051;SDS011;22964;52.272;13.356;2022-08-21T08:07:19;4.95;;;1.35;;
37051;SDS011;22964;52.272;13.356;2022-08-21T08:09:45;3.85;;;1.00;;
37051;SDS011;22964;52.272;13.356;2022-08-21T08:12:11;2.67;;;1.08;;
37051;SDS011;22964;52.272;13.356;2022-08-21T08:14:37;5.10;;;1.20;;
37051;SDS011;22964;52.272;13.356;2022-08-21T08:17:02;5.22;;;1.38;;
37051;SDS011;22964;52.272;13.356;2022-08-21T08:19:28;4.30;;;1.17;;
37051;SDS011;22964;52.272;13.356;2022-08-21T08:21:54;3.58;;;1.00;;
37051;SDS011;22964;52.272;13.356;2022-08-21T08:24:20;3.10;;;1.17;;
37051;SDS011;22964;52.272;13.356;2022-08-21T08:26:46;4.13;;;1.20;;
37051;SDS011;22964;52.272;13.356;2022-08-21T08:29:12;3.53;;;1.27;;
37051;SDS011;22964;52.272;13.356;2022-08-21T08:31:38;2.25;;;1.08;;
37051;SDS011;22964;52.272;13.356;2022-08-21T08:34:04;4.30;;;1.30;;
37051;SDS011;22964;52.272;13.356;2022-08-21T08:36:33;6.15;;;1.10;;
37051;SDS011;22964;52.272;13.356;2022-08-21T08:39:01;4.07;;;1.00;;
37051;SDS011;22964;52.272;13.356;2022-08-21T08:41:28;3.05;;;1.08;;
37051;SDS011;22964;52.272;13.356;2022-08-21T08:43:56;3.75;;;1.38;;
37051;SDS011;22964;52.272;13.356;2022-08-21T08:46:29;2.05;;;1.20;;
37051;SDS011;22964;52.272;13.356;2022-08-21T08:49:03;2.42;;;1.20;;
37051;SDS011;22964;52.272;13.356;2022-08-21T08:52:11;3.05;;;1.20;;
37051;SDS011;22964;52.272;13.356;2022-08-21T08:54:45;3.78;;;1.20;;
37051;SDS011;22964;52.272;13.356;2022-08-21T08:57:17;2.55;;;1.10;;
37051;SDS011;22964;52.272;13.356;2022-08-21T08:59:48;1.73;;;1.00;;
37051;SDS011;22964;52.272;13.356;2022-08-21T09:02:17;4.00;;;1.20;;
37051;SDS011;22964;52.272;13.356;2022-08-21T09:04:44;2.50;;;1.10;;
37051;SDS011;22964;52.272;13.356;2022-08-21T09:07:16;2.55;;;1.00;;
37051;SDS011;22964;52.272;13.356;2022-08-21T09:15:37;3.75;;;1.30;;
37051;SDS011;22964;52.272;13.356;2022-08-21T09:18:37;3.17;;;1.10;;
37051;SDS011;22964;52.272;13.356;2022-08-21T09:21:20;2.92;;;1.20;;
37051;SDS011;22964;52.272;13.356;2022-08-21T09:27:10;3.78;;;1.30;;
37051;SDS011;22964;52.272;13.356;2022-08-21T09:29:39;4.35;;;1.33;;
37051;SDS011;22964;52.272;13.356;2022-08-21T09:32:23;2.78;;;1.10;;
37051;SDS011;22964;52.272;13.356;2022-08-21T09:34:58;3.08;;;1.10;;
37051;SDS011;22964;52.272;13.356;2022-08-21T09:37:29;4.15;;;1.23;;
37051;SDS011;22964;52.272;13.356;2022-08-21T09:39:57;3.37;;;1.73;;
37051;SDS011;22964;52.272;13.356;2022-08-21T09:42:27;3.50;;;1.15;;
37051;SDS011;22964;52.272;13.356;2022-08-21T09:45:10;4.88;;;1.27;;
37051;SDS011;22964;52.272;13.356;2022-08-21T09:47:39;5.80;;;1.73;;
37051;SDS011;22964;52.272;13.356;2022-08-21T09:50:25;3.08;;;1.20;;
37051;SDS011;22964;52.272;13.356;2022-08-21T09:52:55;2.63;;;1.10;;
37051;SDS011;22964;52.272;13.356;2022-08-21T09:55:30;3.50;;;1.20;;
37051;SDS011;22964;52.272;13.356;2022-08-21T09:58:30;3.05;;;1.33;;
37051;SDS011;22964;52.272;13.356;2022-08-21T10:00:59;2.78;;;1.33;;
37051;SDS011;22964;52.272;13.356;2022-08-21T10:03:26;3.38;;;1.10;;
37051;SDS011;22964;52.272;13.356;2022-08-21T10:08:31;3.13;;;1.25;;
37051;SDS011;22964;52.272;13.356;2022-08-21T10:11:06;2.03;;;1.00;;
37051;SDS011;22964;52.272;13.356;2022-08-21T10:19:31;2.53;;;1.30;;
37051;SDS011;22964;52.272;13.356;2022-08-21T10:22:17;2.53;;;1.17;;
37051;SDS011;22964;52.272;13.356;2022-08-21T10:36:21;2.38;;;0.90;;
37051;SDS011;22964;52.272;13.356;2022-08-21T10:44:43;2.85;;;1.00;;
37051;SDS011;22964;52.272;13.356;2022-08-21T10:47:34;2.40;;;0.95;;
37051;SDS011;22964;52.272;13.356;2022-08-21T10:50:12;2.08;;;0.98;;
37051;SDS011;22964;52.272;13.356;2022-08-21T10:53:04;2.22;;;1.00;;
37051;SDS011;22964;52.272;13.356;2022-08-21T10:58:14;4.88;;;1.20;;
37051;SDS011;22964;52.272;13.356;2022-08-21T11:01:28;2.60;;;1.13;;
37051;SDS011;22964;52.272;13.356;2022-08-21T11:06:41;1.90;;;0.90;;
37051;SDS011;22964;52.272;13.356;2022-08-21T11:09:17;3.08;;;1.00;;
37051;SDS011;22964;52.272;13.356;2022-08-21T11:14:52;3.03;;;1.00;;
37051;SDS011;22964;52.272;13.356;2022-08-21T11:17:32;1.98;;;1.00;;
37051;SDS011;22964;52.272;13.356;2022-08-21T11:20:07;1.88;;;1.02;;
37051;SDS011;22964;52.272;13.356;2022-08-21T11:25:44;2.88;;;0.90;;
37051;SDS011;22964;52.272;13.356;2022-08-21T11:31:02;2.00;;;1.00;;
37051;SDS011;22964;52.272;13.356;2022-08-21T11:36:21;3.33;;;1.13;;
37051;SDS011;22964;52.272;13.356;2022-08-21T11:41:43;1.67;;;0.90;;
37051;SDS011;22964;52.272;13.356;2022-08-21T11:44:24;3.15;;;1.30;;
37051;SDS011;22964;52.272;13.356;2022-08-21T11:47:13;1.95;;;1.00;;
37051;SDS011;22964;52.272;13.356;2022-08-21T11:50:17;2.50;;;1.17;;
37051;SDS011;22964;52.272;13.356;2022-08-21T11:52:48;2.97;;;1.35;;
37051;SDS011;22964;52.272;13.356;2022-08-21T11:55:23;2.05;;;1.10;;
37051;SDS011;22964;52.272;13.356;2022-08-21T11:58:06;3.05;;;0.98;;
37051;SDS011;22964;52.272;13.356;2022-08-21T12:00:41;2.38;;;0.90;;
37051;SDS011;22964;52.272;13.356;2022-08-21T12:03:14;1.85;;;1.00;;
37051;SDS011;22964;52.272;13.356;2022-08-21T12:06:06;1.77;;;0.90;;
37051;SDS011;22964;52.272;13.356;2022-08-21T12:08:35;3.20;;;1.13;;
37051;SDS011;22964;52.272;13.356;2022-08-21T12:11:10;2.33;;;0.90;;
37051;SDS011;22964;52.272;13.356;2022-08-21T12:14:21;4.00;;;1.40;;
37051;SDS011;22964;52.272;13.356;2022-08-21T12:16:43;1.80;;;0.80;;
37051;SDS011;22964;52.272;13.356;2022-08-21T12:19:27;2.30;;;0.95;;
37051;SDS011;22964;52.272;13.356;2022-08-21T12:29:26;2.35;;;1.00;;
37051;SDS011;22964;52.272;13.356;2022-08-21T12:31:58;1.55;;;1.00;;
37051;SDS011;22964;52.272;13.356;2022-08-21T12:38:12;2.37;;;1.00;;
37051;SDS011;22964;52.272;13.356;2022-08-21T12:40:48;2.88;;;1.00;;
37051;SDS011;22964;52.272;13.356;2022-08-21T12:43:37;2.85;;;1.08;;
37051;SDS011;22964;52.272;13.356;2022-08-21T12:46:15;3.83;;;0.90;;
37051;SDS011;22964;52.272;13.356;2022-08-21T12:48:52;1.73;;;0.95;;
37051;SDS011;22964;52.272;13.356;2022-08-21T12:51:23;3.00;;;1.00;;
37051;SDS011;22964;52.272;13.356;2022-08-21T12:53:54;1.70;;;1.00;;
37051;SDS011;22964;52.272;13.356;2022-08-21T12:56:23;1.50;;;0.88;;
37051;SDS011;22964;52.272;13.356;2022-08-21T12:58:55;2.45;;;1.00;;
37051;SDS011;22964;52.272;13.356;2022-08-21T13:04:13;3.13;;;1.15;;
37051;SDS011;22964;52.272;13.356;2022-08-21T13:06:43;2.75;;;1.08;;
37051;SDS011;22964;52.272;13.356;2022-08-21T13:09:12;2.22;;;1.05;;
37051;SDS011;22964;52.272;13.356;2022-08-21T13:11:42;3.53;;;1.10;;
37051;SDS011;22964;52.272;13.356;2022-08-21T13:14:14;4.65;;;1.20;;
37051;SDS011;22964;52.272;13.356;2022-08-21T13:16:57;2.60;;;1.20;;
37051;SDS011;22964;52.272;13.356;2022-08-21T13:19:24;2.13;;;1.00;;
37051;SDS011;22964;52.272;13.356;2022-08-21T13:21:50;3.38;;;1.10;;
37051;SDS011;22964;52.272;13.356;2022-08-21T13:24:22;2.50;;;1.20;;
37051;SDS011;22964;52.272;13.356;2022-08-21T13:26:50;2.42;;;1.05;;
37051;SDS011;22964;52.272;13.356;2022-08-21T13:29:18;2.13;;;0.95;;
37051;SDS011;22964;52.272;13.356;2022-08-21T13:31:51;3.15;;;1.27;;
37051;SDS011;22964;52.272;13.356;2022-08-21T13:34:23;2.53;;;1.13;;
37051;SDS011;22964;52.272;13.356;2022-08-21T13:36:56;2.38;;;1.27;;
37051;SDS011;22964;52.272;13.356;2022-08-21T13:39:24;2.33;;;1.10;;
37051;SDS011;22964;52.272;13.356;2022-08-21T13:41:51;1.90;;;1.10;;
37051;SDS011;22964;52.272;13.356;2022-08-21T13:44:23;3.72;;;1.10;;
37051;SDS011;22964;52.272;13.356;2022-08-21T13:46:57;1.98;;;1.00;;
37051;SDS011;22964;52.272;13.356;2022-08-21T13:49:27;2.70;;;1.13;;
37051;SDS011;22964;52.272;13.356;2022-08-21T13:51:56;1.85;;;1.05;;
37051;SDS011;22964;52.272;13.356;2022-08-21T13:54:26;3.58;;;1.30;;
37051;SDS011;22964;52.272;13.356;2022-08-21T13:57:15;3.13;;;1.60;;
37051;SDS011;22964;52.272;13.356;2022-08-21T13:59:43;2.28;;;1.10;;
37051;SDS011;22964;52.272;13.356;2022-08-21T14:02:18;4.38;;;1.30;;
37051;SDS011;22964;52.272;13.356;2022-08-21T14:04:59;4.22;;;1.20;;
37051;SDS011;22964;52.272;13.356;2022-08-21T14:07:33;3.60;;;1.35;;
37051;SDS011;22964;52.272;13.356;2022-08-21T14:10:06;3.00;;;1.30;;
37051;SDS011;22964;52.272;13.356;2022-08-21T14:12:41;2.45;;;1.10;;
37051;SDS011;22964;52.272;13.356;2022-08-21T14:15:12;2.72;;;1.00;;
37051;SDS011;22964;52.272;13.356;2022-08-21T14:17:41;2.13;;;1.10;;
37051;SDS011;22964;52.272;13.356;2022-08-21T14:20:11;2.20;;;1.20;;
37051;SDS011;22964;52.272;13.356;2022-08-21T14:22:49;3.30;;;1.30;;
37051;SDS011;22964;52.272;13.356;2022-08-21T14:27:48;3.28;;;1.10;;
37051;SDS011;22964;52.272;13.356;2022-08-21T14:30:34;2.85;;;1.35;;
37051;SDS011;22964;52.272;13.356;2022-08-21T14:33:03;4.72;;;1.25;;
37051;SDS011;22964;52.272;13.356;2022-08-21T14:35:34;4.03;;;1.23;;
37051;SDS011;22964;52.272;13.356;2022-08-21T14:38:00;2.80;;;1.17;;
37051;SDS011;22964;52.272;13.356;2022-08-21T14:40:25;5.00;;;1.38;;
37051;SDS011;22964;52.272;13.356;2022-08-21T14:42:51;3.40;;;1.27;;
37051;SDS011;22964;52.272;13.356;2022-08-21T14:45:28;3.05;;;1.30;;
37051;SDS011;22964;52.272;13.356;2022-08-21T14:47:55;4.10;;;1.40;;
37051;SDS011;22964;52.272;13.356;2022-08-21T14:50:22;3.25;;;1.30;;
37051;SDS011;22964;52.272;13.356;2022-08-21T14:52:48;3.88;;;1.10;;
37051;SDS011;22964;52.272;13.356;2022-08-21T14:55:15;3.58;;;1.15;;
37051;SDS011;22964;52.272;13.356;2022-08-21T14:57:42;2.72;;;1.30;;
37051;SDS011;22964;52.272;13.356;2022-08-21T15:00:11;3.45;;;1.20;;
37051;SDS011;22964;52.272;13.356;2022-08-21T15:02:38;3.22;;;1.40;;
37051;SDS011;22964;52.272;13.356;2022-08-21T15:05:04;4.05;;;1.30;;
37051;SDS011;22964;52.272;13.356;2022-08-21T15:07:31;5.07;;;1.60;;
37051;SDS011;22964;52.272;13.356;2022-08-21T15:09:56;2.50;;;1.27;;
37051;SDS011;22964;52.272;13.356;2022-08-21T15:12:23;2.28;;;1.30;;
37051;SDS011;22964;52.272;13.356;2022-08-21T15:14:49;3.78;;;1.52;;
37051;SDS011;22964;52.272;13.356;2022-08-21T15:17:16;2.75;;;1.25;;
37051;SDS011;22964;52.272;13.356;2022-08-21T15:19:41;3.72;;;1.30;;
37051;SDS011;22964;52.272;13.356;2022-08-21T15:22:07;2.65;;;1.20;;
37051;SDS011;22964;52.272;13.356;2022-08-21T15:24:33;4.45;;;1.25;;
37051;SDS011;22964;52.272;13.356;2022-08-21T15:26:59;3.50;;;1.20;;
37051;SDS011;22964;52.272;13.356;2022-08-21T15:29:26;2.47;;;1.15;;
37051;SDS011;22964;52.272;13.356;2022-08-21T15:31:55;3.95;;;1.20;;
37051;SDS011;22964;52.272;13.356;2022-08-21T15:34:27;2.25;;;1.20;;
37051;SDS011;22964;52.272;13.356;2022-08-21T15:36:55;2.45;;;1.20;;
37051;SDS011;22964;52.272;13.356;2022-08-21T15:39:21;3.10;;;1.20;;
37051;SDS011;22964;52.272;13.356;2022-08-21T15:41:47;2.78;;;1.23;;
37051;SDS011;22964;52.272;13.356;2022-08-21T15:44:14;2.15;;;1.00;;
37051;SDS011;22964;52.272;13.356;2022-08-21T15:46:40;3.90;;;1.35;;
37051;SDS011;22964;52.272;13.356;2022-08-21T15:49:09;2.45;;;1.40;;
37051;SDS011;22964;52.272;13.356;2022-08-21T15:51:35;3.25;;;1.30;;
37051;SDS011;22964;52.272;13.356;2022-08-21T15:54:01;3.35;;;1.27;;
37051;SDS011;22964;52.272;13.356;2022-08-21T15:56:31;2.63;;;1.13;;
37051;SDS011;22964;52.272;13.356;2022-08-21T15:59:02;4.85;;;1.50;;
37051;SDS011;22964;52.272;13.356;2022-08-21T16:03:58;2.05;;;1.05;;
37051;SDS011;22964;52.272;13.356;2022-08-21T16:06:25;3.75;;;1.30;;